This is the latest recevied weather packets stored in our database for station/object KC4ANB. If no packets are shown the sender has not sent any weather packets the latest 10 day(s).
| Time | Temp. | Humidity | Pressure | Rain* | Wind** | Luminosity | Snow |
|---|---|---|---|---|---|---|---|
| 1777242738 | 24.44° C | 65% | 1011.5 hPa | 0 mm | - | - | - |
| 1777241537 | 25° C | 65% | 1011.3 hPa | 0 mm | - | - | - |
| 1777234958 | 25.56° C | 68% | 1011.4 hPa | 0 mm | - | - | - |
| 1777234337 | 25° C | 66% | 1011.3 hPa | 0 mm | - | - | - |
| 1777229537 | 24.44° C | 75% | 1012.2 hPa | 0 mm | - | - | - |
| 1777227737 | 23.89° C | 78% | 1012.6 hPa | 0 mm | - | - | - |
| 1777224737 | 22.78° C | 82% | 1013.1 hPa | 0 mm | - | - | - |
| 1777224137 | 22.22° C | 83% | 1013.2 hPa | 0 mm | - | - | - |
| 1777216337 | 18.89° C | 93% | 1013 hPa | 0 mm | - | - | - |
| 1777215737 | 18.89° C | 94% | 1012.9 hPa | 0 mm | - | - | - |
| 1777214557 | 18.33° C | 96% | 1013 hPa | 0 mm | - | - | - |
| 1777211557 | 17.22° C | 98% | 1012.6 hPa | 0 mm | - | - | - |
| 1777210937 | 17.22° C | 98% | 1012.3 hPa | 0 mm | - | - | - |
| 1777206737 | 16.11° C | 98% | 1011.8 hPa | 0 mm | - | - | - |
| 1777205537 | 16.11° C | 98% | 1011.6 hPa | 0 mm | - | - | - |
| 1777204964 | 15.56° C | 98% | 1011.6 hPa | 0 mm | - | - | - |
| 1777197736 | 16.11° C | 97% | 1010.2 hPa | 0 mm | - | - | - |
| 1777195936 | 16.67° C | 98% | 1010.3 hPa | 0 mm | - | - | - |
| 1777194736 | 16.67° C | 98% | 1010.5 hPa | 0 mm | - | - | - |
| 1777187536 | 16.11° C | 97% | 1009.3 hPa | 0 mm | - | - | - |
| 1777186944 | 16.11° C | 97% | 1009.3 hPa | 0 mm | - | - | - |
| 1777185736 | 16.11° C | 96% | 1009.2 hPa | 0 mm | - | - | - |
| 1777184559 | 16.67° C | 96% | 1009.5 hPa | 0 mm | - | - | - |
| 1777182138 | 17.22° C | 96% | 1010.1 hPa | 0 mm | - | - | - |
| 1777174339 | 18.89° C | 93% | 1009.7 hPa | 0 mm | - | - | - |
* Rain latest hour (hover to see other rain measurements)
** Current wind speed in m/s (hover to see current wind gust speed)